createdAt,value
2023-03-29T00:00:25.009Z,7.05
2023-03-29T00:01:35.349Z,7.04
2023-03-29T00:02:26.168Z,7.04
2023-03-29T00:03:25.148Z,7.04
2023-03-29T00:04:25.025Z,7.07
2023-03-29T00:05:25.488Z,7.05
2023-03-29T00:06:24.982Z,7.05
2023-03-29T00:07:24.941Z,7.05
2023-03-29T00:08:24.951Z,7.03
2023-03-29T00:09:24.967Z,7.03
2023-03-29T00:10:24.909Z,7.04
2023-03-29T00:11:24.895Z,7.04
2023-03-29T00:12:24.912Z,7.01
2023-03-29T00:13:24.982Z,6.97
2023-03-29T00:14:24.866Z,6.97
2023-03-29T00:15:24.834Z,6.96
2023-03-29T00:16:24.889Z,6.97
2023-03-29T00:17:24.828Z,6.97
2023-03-29T00:18:24.810Z,6.96
2023-03-29T00:19:24.807Z,6.97
2023-03-29T00:20:24.873Z,7.00
2023-03-29T00:21:24.818Z,6.96
2023-03-29T00:22:24.753Z,6.97
2023-03-29T00:23:24.770Z,6.95
2023-03-29T00:24:24.816Z,6.97
2023-03-29T00:25:24.735Z,6.97
2023-03-29T00:26:24.777Z,6.95
2023-03-29T00:27:24.759Z,6.95
2023-03-29T00:28:24.973Z,6.96
2023-03-29T00:29:24.689Z,6.97
2023-03-29T00:30:24.804Z,6.93
2023-03-29T00:31:24.758Z,6.87
2023-03-29T00:32:24.721Z,6.86
2023-03-29T00:33:24.721Z,6.89
2023-03-29T00:34:24.706Z,6.85
2023-03-29T00:35:24.738Z,6.86
2023-03-29T00:36:24.661Z,6.83
2023-03-29T00:37:24.661Z,6.85
2023-03-29T00:38:24.698Z,6.86
2023-03-29T00:39:24.648Z,6.87
2023-03-29T00:40:24.613Z,6.85
2023-03-29T00:41:24.625Z,6.85
2023-03-29T00:42:24.668Z,6.85
2023-03-29T00:43:24.602Z,6.85
2023-03-29T00:44:24.564Z,6.82
2023-03-29T00:45:24.584Z,6.82
2023-03-29T00:46:24.570Z,6.74
2023-03-29T00:47:24.555Z,6.75
2023-03-29T00:48:24.599Z,6.72
2023-03-29T00:49:24.530Z,6.74
2023-03-29T00:50:24.539Z,6.75
2023-03-29T00:51:24.477Z,6.77
2023-03-29T00:52:24.480Z,6.75
2023-03-29T00:53:24.482Z,6.80
2023-03-29T00:54:24.531Z,6.78
2023-03-29T00:55:24.456Z,6.78
2023-03-29T00:56:24.512Z,6.78
2023-03-29T00:57:26.510Z,6.78
2023-03-29T00:58:24.550Z,6.75
2023-03-29T00:59:24.421Z,6.77
2023-03-29T01:00:24.385Z,6.74
2023-03-29T01:01:24.453Z,6.72
2023-03-29T01:02:24.475Z,6.75
2023-03-29T01:03:24.540Z,6.77
2023-03-29T01:04:24.378Z,6.70
2023-03-29T01:05:24.345Z,6.68
2023-03-29T01:06:24.321Z,6.67
2023-03-29T01:07:24.307Z,6.65
2023-03-29T01:08:24.324Z,6.68
2023-03-29T01:09:24.342Z,6.70
2023-03-29T01:10:24.306Z,6.68
2023-03-29T01:11:24.312Z,6.67
2023-03-29T01:12:24.318Z,6.64
2023-03-29T01:13:24.295Z,6.68
2023-03-29T01:14:24.352Z,6.68
2023-03-29T01:15:24.304Z,6.70
2023-03-29T01:16:24.309Z,6.70
2023-03-29T01:17:24.276Z,6.71
2023-03-29T01:18:24.213Z,6.70
2023-03-29T01:19:24.170Z,6.67
2023-03-29T01:20:24.257Z,6.67
2023-03-29T01:21:24.204Z,6.60
2023-03-29T01:22:24.178Z,6.59
2023-03-29T01:23:24.154Z,6.60
2023-03-29T01:24:24.189Z,6.64
2023-03-29T01:25:24.161Z,6.64
2023-03-29T01:26:24.212Z,6.65
2023-03-29T01:27:24.088Z,6.68
2023-03-29T01:28:24.093Z,6.71
2023-03-29T01:29:24.082Z,6.70
2023-03-29T01:30:24.089Z,6.67
2023-03-29T01:31:24.111Z,6.67
2023-03-29T01:32:24.112Z,6.67
2023-03-29T01:33:24.082Z,6.65
2023-03-29T01:34:24.128Z,6.65
2023-03-29T01:35:24.025Z,6.65
2023-03-29T01:36:24.104Z,6.65
2023-03-29T01:37:24.090Z,6.65
2023-03-29T01:38:24.018Z,6.70
2023-03-29T01:39:24.008Z,6.68
2023-03-29T01:40:24.032Z,6.67
2023-03-29T01:41:23.997Z,6.67
2023-03-29T01:42:23.939Z,6.64
2023-03-29T01:43:23.930Z,6.67
2023-03-29T01:44:23.920Z,6.67
2023-03-29T01:45:23.891Z,6.67
2023-03-29T01:46:23.927Z,6.68
2023-03-29T01:47:23.978Z,6.68
2023-03-29T01:48:23.850Z,6.70
2023-03-29T01:49:23.955Z,6.70
2023-03-29T01:50:23.861Z,6.67
2023-03-29T01:51:23.882Z,6.67
2023-03-29T01:52:23.847Z,6.71
2023-03-29T01:53:23.864Z,6.68
2023-03-29T01:54:23.871Z,6.67
2023-03-29T01:55:23.852Z,6.68
2023-03-29T01:56:23.803Z,6.68
2023-03-29T01:57:23.788Z,6.67
2023-03-29T01:58:23.740Z,6.70
2023-03-29T01:59:23.724Z,6.65
2023-03-29T02:00:23.706Z,6.64
2023-03-29T02:01:23.752Z,6.60
2023-03-29T02:02:23.757Z,6.60
2023-03-29T02:03:23.814Z,6.59
2023-03-29T02:04:23.671Z,6.62
2023-03-29T02:05:23.658Z,6.67
2023-03-29T02:06:23.731Z,6.60
2023-03-29T02:07:23.650Z,6.62
2023-03-29T02:08:23.627Z,6.64
2023-03-29T02:09:24.848Z,6.65
2023-03-29T02:10:23.634Z,6.65
2023-03-29T02:11:23.579Z,6.68
2023-03-29T02:12:23.584Z,6.70
2023-03-29T02:13:23.580Z,6.67
2023-03-29T02:14:23.582Z,6.64
2023-03-29T02:15:23.702Z,6.65
2023-03-29T02:16:23.575Z,6.68
2023-03-29T02:17:23.561Z,6.65
2023-03-29T02:18:23.628Z,6.64
2023-03-29T02:19:23.535Z,6.67
2023-03-29T02:20:23.590Z,6.70
2023-03-29T02:21:23.492Z,6.70
2023-03-29T02:22:23.597Z,6.68
2023-03-29T02:23:23.502Z,6.68
2023-03-29T02:24:23.464Z,6.67
2023-03-29T02:25:23.464Z,6.67
2023-03-29T02:26:23.438Z,6.64
2023-03-29T02:27:23.382Z,6.62
2023-03-29T02:28:23.441Z,6.59
2023-03-29T02:29:23.466Z,6.64
2023-03-29T02:30:23.434Z,6.60
2023-03-29T02:31:23.433Z,6.64
2023-03-29T02:32:23.478Z,6.65
2023-03-29T02:33:23.381Z,6.64
2023-03-29T02:34:23.365Z,6.60
2023-03-29T02:35:23.363Z,6.64
2023-03-29T02:36:23.373Z,6.64
2023-03-29T02:37:23.353Z,6.65
2023-03-29T02:38:23.312Z,6.64
2023-03-29T02:39:23.310Z,6.65
2023-03-29T02:40:23.351Z,6.65
2023-03-29T02:41:23.334Z,6.67
2023-03-29T02:42:23.280Z,6.65
2023-03-29T02:43:25.783Z,6.65
2023-03-29T02:44:23.258Z,6.68
2023-03-29T02:45:23.242Z,6.70
2023-03-29T02:46:23.283Z,6.68
2023-03-29T02:47:23.259Z,6.65
2023-03-29T02:48:23.268Z,6.64
2023-03-29T02:49:23.233Z,6.64
2023-03-29T02:50:23.279Z,6.65
2023-03-29T02:51:23.189Z,6.65
2023-03-29T02:52:23.184Z,6.67
2023-03-29T02:53:23.194Z,6.64
2023-03-29T02:54:23.174Z,6.64
2023-03-29T02:55:23.140Z,6.67
2023-03-29T02:56:23.111Z,6.65
2023-03-29T02:57:23.161Z,6.64
2023-03-29T02:58:23.165Z,6.60
2023-03-29T02:59:23.093Z,6.64
2023-03-29T03:00:23.121Z,6.62
2023-03-29T03:01:23.231Z,6.62
2023-03-29T03:02:23.113Z,6.65
2023-03-29T03:03:23.230Z,6.65
2023-03-29T03:04:23.091Z,6.65
2023-03-29T03:05:23.083Z,6.64
2023-03-29T03:06:23.047Z,6.64
2023-03-29T03:07:23.078Z,6.64
2023-03-29T03:08:23.057Z,6.64
2023-03-29T03:09:23.026Z,6.65
2023-03-29T03:10:23.077Z,6.64
2023-03-29T03:11:23.011Z,6.64
2023-03-29T03:12:22.998Z,6.67
2023-03-29T03:13:23.044Z,6.65
2023-03-29T03:14:22.991Z,6.64
2023-03-29T03:15:22.974Z,6.65
2023-03-29T03:16:23.006Z,6.65
2023-03-29T03:17:23.010Z,6.67
2023-03-29T03:18:22.919Z,6.67
2023-03-29T03:19:22.875Z,6.65
2023-03-29T03:20:22.854Z,6.65
2023-03-29T03:21:23.117Z,6.65
2023-03-29T03:22:22.878Z,6.64
2023-03-29T03:23:22.880Z,6.68
2023-03-29T03:24:22.915Z,6.68
2023-03-29T03:25:22.829Z,6.68
2023-03-29T03:26:22.811Z,6.64
2023-03-29T03:27:22.845Z,6.65
2023-03-29T03:28:22.789Z,6.64
2023-03-29T03:29:22.892Z,6.65
2023-03-29T03:30:22.814Z,6.64
2023-03-29T03:31:22.782Z,6.65
2023-03-29T03:32:22.853Z,6.70
2023-03-29T03:33:22.824Z,6.68
2023-03-29T03:34:22.823Z,6.70
2023-03-29T03:35:22.807Z,6.70
2023-03-29T03:36:22.713Z,6.68
2023-03-29T03:37:22.694Z,6.68
2023-03-29T03:38:22.713Z,6.67
2023-03-29T03:39:22.684Z,6.67
2023-03-29T03:40:22.684Z,6.64
2023-03-29T03:41:22.730Z,6.65
2023-03-29T03:42:22.650Z,6.65
2023-03-29T03:43:22.641Z,6.65
2023-03-29T03:44:22.810Z,6.65
2023-03-29T03:45:22.568Z,6.67
2023-03-29T03:46:22.608Z,6.64
2023-03-29T03:47:22.774Z,6.65
2023-03-29T03:48:22.541Z,6.64
2023-03-29T03:49:22.528Z,6.65
2023-03-29T03:50:22.541Z,6.64
2023-03-29T03:51:22.520Z,6.62
2023-03-29T03:52:22.597Z,6.65
2023-03-29T03:53:22.780Z,6.67
2023-03-29T03:54:22.536Z,6.65
2023-03-29T03:55:22.528Z,6.67
2023-03-29T03:56:22.470Z,6.65
2023-03-29T03:57:22.660Z,6.64
2023-03-29T03:58:22.511Z,6.67
2023-03-29T03:59:22.495Z,6.67
2023-03-29T04:00:22.420Z,6.64
2023-03-29T04:01:22.431Z,6.65
2023-03-29T04:02:22.492Z,6.65
2023-03-29T04:03:22.652Z,6.64
2023-03-29T04:04:22.428Z,6.67
2023-03-29T04:05:22.373Z,6.67
2023-03-29T04:06:22.380Z,6.68
2023-03-29T04:07:22.400Z,6.67
2023-03-29T04:08:22.359Z,6.65
2023-03-29T04:09:22.353Z,6.67
2023-03-29T04:10:22.519Z,6.67
2023-03-29T04:11:22.346Z,6.68
2023-03-29T04:12:22.329Z,6.65
2023-03-29T04:13:22.335Z,6.65
2023-03-29T04:14:22.266Z,6.65
2023-03-29T04:15:22.300Z,6.65
2023-03-29T04:16:22.315Z,6.65
2023-03-29T04:17:22.322Z,6.64
2023-03-29T04:18:22.300Z,6.65
2023-03-29T04:19:22.310Z,6.65
2023-03-29T04:20:22.363Z,6.62
2023-03-29T04:21:22.209Z,6.65
2023-03-29T04:22:22.294Z,6.64
2023-03-29T04:23:22.211Z,6.65
2023-03-29T04:24:22.156Z,6.64
2023-03-29T04:25:22.172Z,6.65
2023-03-29T04:26:22.127Z,6.65
2023-03-29T04:27:22.132Z,6.65
2023-03-29T04:28:22.135Z,6.64
2023-03-29T04:29:22.115Z,6.67
2023-03-29T04:30:22.327Z,6.64
2023-03-29T04:31:22.161Z,6.67
2023-03-29T04:32:22.185Z,6.68
2023-03-29T04:33:22.141Z,6.70
2023-03-29T04:34:22.081Z,6.70
2023-03-29T04:35:22.050Z,6.67
2023-03-29T04:36:22.068Z,6.67
2023-03-29T04:37:22.071Z,6.68
2023-03-29T04:38:22.072Z,6.67
2023-03-29T04:39:21.995Z,6.70
2023-03-29T04:40:21.983Z,6.70
2023-03-29T04:41:21.996Z,6.68
2023-03-29T04:42:21.986Z,6.68
2023-03-29T04:43:21.952Z,6.68
2023-03-29T04:44:22.069Z,6.70
2023-03-29T04:45:21.940Z,6.72
2023-03-29T04:46:21.904Z,6.71
2023-03-29T04:47:21.880Z,6.72
2023-03-29T04:48:21.886Z,6.72
2023-03-29T04:49:23.853Z,6.74
2023-03-29T04:50:21.902Z,6.74
2023-03-29T04:51:21.860Z,6.72
2023-03-29T04:52:23.932Z,6.75
2023-03-29T04:53:21.891Z,6.75
2023-03-29T04:54:21.870Z,6.72
2023-03-29T04:55:21.865Z,6.74
2023-03-29T04:56:21.801Z,6.74
2023-03-29T04:57:21.821Z,6.75
2023-03-29T04:58:24.395Z,6.75
2023-03-29T04:59:21.770Z,6.77
2023-03-29T05:00:21.758Z,6.77
2023-03-29T05:01:21.826Z,6.78
2023-03-29T05:02:21.824Z,6.78
2023-03-29T05:03:21.804Z,6.82
2023-03-29T05:04:21.715Z,6.78
2023-03-29T05:05:21.756Z,6.78
2023-03-29T05:06:21.697Z,6.82
2023-03-29T05:07:21.787Z,6.82
2023-03-29T05:08:21.698Z,6.82
2023-03-29T05:09:21.707Z,6.86
2023-03-29T05:10:21.657Z,6.86
2023-03-29T05:11:21.650Z,6.89
2023-03-29T05:12:21.604Z,6.87
2023-03-29T05:13:21.617Z,6.86
2023-03-29T05:14:21.629Z,6.87
2023-03-29T05:15:21.581Z,6.89
2023-03-29T05:16:21.580Z,6.87
2023-03-29T05:17:21.560Z,6.86
2023-03-29T05:18:21.605Z,6.90
2023-03-29T05:19:21.554Z,6.89
2023-03-29T05:20:21.497Z,6.89
2023-03-29T05:21:21.519Z,6.89
2023-03-29T05:22:21.535Z,6.87
2023-03-29T05:23:21.514Z,6.90
2023-03-29T05:24:21.475Z,6.90
2023-03-29T05:25:21.496Z,6.92
2023-03-29T05:26:21.524Z,6.93
2023-03-29T05:27:21.418Z,6.93
2023-03-29T05:28:21.443Z,6.95
2023-03-29T05:29:21.461Z,6.95
2023-03-29T05:30:21.464Z,6.96
2023-03-29T05:31:21.583Z,6.97
2023-03-29T05:32:21.413Z,6.97
2023-03-29T05:33:21.440Z,6.96
2023-03-29T05:34:21.450Z,6.97
2023-03-29T05:35:21.389Z,6.97
2023-03-29T05:36:21.345Z,7.03
2023-03-29T05:37:21.370Z,7.01
2023-03-29T05:38:21.421Z,7.03
2023-03-29T05:39:21.375Z,7.03
2023-03-29T05:40:21.369Z,7.01
2023-03-29T05:41:21.288Z,7.07
2023-03-29T05:42:21.254Z,7.03
2023-03-29T05:43:21.356Z,7.05
2023-03-29T05:44:21.350Z,7.05
2023-03-29T05:45:21.289Z,7.05
2023-03-29T05:46:21.288Z,7.05
2023-03-29T05:47:21.255Z,7.10
2023-03-29T05:48:21.298Z,7.07
2023-03-29T05:49:21.233Z,7.08
2023-03-29T05:50:21.189Z,7.08
2023-03-29T05:51:21.188Z,7.11
2023-03-29T05:52:21.179Z,7.10
2023-03-29T05:53:21.227Z,7.11
2023-03-29T05:54:21.230Z,7.15
2023-03-29T05:55:21.210Z,7.15
2023-03-29T05:56:21.187Z,7.15
2023-03-29T05:57:21.257Z,7.18
2023-03-29T05:58:21.092Z,7.18
2023-03-29T05:59:21.147Z,7.23
2023-03-29T06:00:21.052Z,7.25
2023-03-29T06:01:21.061Z,7.25
2023-03-29T06:02:21.109Z,7.28
2023-03-29T06:03:21.981Z,7.28
2023-03-29T06:04:21.118Z,7.29
2023-03-29T06:05:21.054Z,7.31
2023-03-29T06:06:20.980Z,7.31
2023-03-29T06:07:20.988Z,7.32
2023-03-29T06:08:21.019Z,7.32
2023-03-29T06:09:20.959Z,7.36
2023-03-29T06:10:20.941Z,7.39
2023-03-29T06:11:21.058Z,7.36
2023-03-29T06:12:20.957Z,7.39
2023-03-29T06:13:20.962Z,7.41
2023-03-29T06:14:20.902Z,7.43
2023-03-29T06:15:20.874Z,7.44
2023-03-29T06:16:20.929Z,7.44
2023-03-29T06:17:20.995Z,7.48
2023-03-29T06:18:20.857Z,7.50
2023-03-29T06:19:20.966Z,7.53
2023-03-29T06:20:20.861Z,7.55
2023-03-29T06:21:20.874Z,7.59
2023-03-29T06:22:20.831Z,7.61
2023-03-29T06:23:20.862Z,7.67
2023-03-29T06:24:20.811Z,7.67
2023-03-29T06:25:20.793Z,7.72
2023-03-29T06:26:20.785Z,7.74
2023-03-29T06:27:20.780Z,7.74
2023-03-29T06:28:20.858Z,7.75
2023-03-29T06:29:21.390Z,7.74
2023-03-29T06:30:20.729Z,7.77
2023-03-29T06:31:20.935Z,7.80
2023-03-29T06:32:20.745Z,7.83
2023-03-29T06:33:20.788Z,7.85
2023-03-29T06:34:20.765Z,7.85
2023-03-29T06:35:20.794Z,7.88
2023-03-29T06:36:20.669Z,7.93
2023-03-29T06:37:20.666Z,7.93
2023-03-29T06:38:20.670Z,7.95
2023-03-29T06:39:20.725Z,7.98
2023-03-29T06:40:20.650Z,8.05
2023-03-29T06:41:20.648Z,8.06
2023-03-29T06:42:21.842Z,8.09
2023-03-29T06:43:20.610Z,8.14
2023-03-29T06:44:20.633Z,8.18
2023-03-29T06:45:23.212Z,8.23
2023-03-29T06:46:20.582Z,8.24
2023-03-29T06:47:20.684Z,8.26
2023-03-29T06:48:20.560Z,8.31
2023-03-29T06:49:20.553Z,8.32
2023-03-29T06:50:20.721Z,8.39
2023-03-29T06:51:22.729Z,8.42
2023-03-29T06:52:20.517Z,8.46
2023-03-29T06:53:20.870Z,8.54
2023-03-29T06:54:20.543Z,8.59
2023-03-29T06:55:20.467Z,8.60
2023-03-29T06:56:20.529Z,8.63
2023-03-29T06:57:20.507Z,8.66
2023-03-29T06:58:20.498Z,8.68
2023-03-29T06:59:20.493Z,8.72
2023-03-29T07:00:20.535Z,8.69
2023-03-29T07:01:20.445Z,8.69
2023-03-29T07:02:20.461Z,8.71
2023-03-29T07:03:20.452Z,8.71
2023-03-29T07:04:20.394Z,8.69
2023-03-29T07:05:20.421Z,8.72
2023-03-29T07:06:20.378Z,8.66
2023-03-29T07:07:20.714Z,8.68
2023-03-29T07:08:20.327Z,8.66
2023-03-29T07:09:20.329Z,8.68
2023-03-29T07:10:20.304Z,8.68
2023-03-29T07:11:20.342Z,8.71
2023-03-29T07:12:20.300Z,8.72
2023-03-29T07:13:20.300Z,8.78
2023-03-29T07:14:20.379Z,8.78
2023-03-29T07:15:20.285Z,8.84
2023-03-29T07:16:20.706Z,8.87
2023-03-29T07:17:20.286Z,8.90
2023-03-29T07:18:20.248Z,8.97
2023-03-29T07:19:20.269Z,8.96
2023-03-29T07:20:20.186Z,8.96
2023-03-29T07:21:20.224Z,8.97
2023-03-29T07:22:20.196Z,8.99
2023-03-29T07:23:20.180Z,9.00
2023-03-29T07:24:20.222Z,9.03
2023-03-29T07:25:20.212Z,9.03
2023-03-29T07:26:28.828Z,9.05
2023-03-29T07:27:21.191Z,9.00
2023-03-29T07:28:20.126Z,9.03
2023-03-29T07:29:20.350Z,9.02
2023-03-29T07:30:20.126Z,9.05
2023-03-29T07:31:20.103Z,9.11
2023-03-29T07:32:20.118Z,9.11
2023-03-29T07:33:20.165Z,9.12
2023-03-29T07:34:20.099Z,9.15
2023-03-29T07:35:20.083Z,9.19
2023-03-29T07:36:20.102Z,9.24
2023-03-29T07:37:20.041Z,9.26
2023-03-29T07:38:20.021Z,9.31
2023-03-29T07:39:19.993Z,9.37
2023-03-29T07:40:20.038Z,9.39
2023-03-29T07:41:20.034Z,9.49
2023-03-29T07:42:19.945Z,9.51
2023-03-29T07:43:20.122Z,9.58
2023-03-29T07:44:19.967Z,9.62
2023-03-29T07:45:19.982Z,9.69
2023-03-29T07:46:20.927Z,9.74
2023-03-29T07:47:19.962Z,9.80
2023-03-29T07:48:19.943Z,9.87
2023-03-29T07:49:21.684Z,9.94
2023-03-29T07:50:19.866Z,10.02
2023-03-29T07:51:19.941Z,10.07
2023-03-29T07:52:19.883Z,10.10
2023-03-29T07:53:19.835Z,10.15
2023-03-29T07:54:19.843Z,10.13
2023-03-29T07:55:19.833Z,10.15
2023-03-29T07:56:19.832Z,10.24
2023-03-29T07:57:19.838Z,10.30
2023-03-29T07:58:19.789Z,10.30
2023-03-29T07:59:19.832Z,10.39
2023-03-29T08:00:19.790Z,10.43
2023-03-29T08:01:20.217Z,10.51
2023-03-29T08:02:19.741Z,10.65
2023-03-29T08:03:19.842Z,10.77
2023-03-29T08:04:19.862Z,10.86
2023-03-29T08:05:29.123Z,10.98
2023-03-29T08:06:20.801Z,11.13
2023-03-29T08:07:19.700Z,11.25
2023-03-29T08:08:19.686Z,11.38
2023-03-29T08:09:19.650Z,11.43
2023-03-29T08:10:19.659Z,11.40
2023-03-29T08:11:19.645Z,11.45
2023-03-29T08:12:19.678Z,11.44
2023-03-29T08:13:19.658Z,11.48
2023-03-29T08:14:19.646Z,11.56
2023-03-29T08:15:19.597Z,11.71
2023-03-29T08:16:19.647Z,11.99
2023-03-29T08:17:19.583Z,12.23
2023-03-29T08:18:19.564Z,12.44
2023-03-29T08:19:19.602Z,12.55
2023-03-29T08:20:19.556Z,12.66
2023-03-29T08:21:19.555Z,12.72
2023-03-29T08:22:19.564Z,12.76
2023-03-29T08:23:19.609Z,12.86
2023-03-29T08:24:20.980Z,12.88
2023-03-29T08:25:19.552Z,12.90
2023-03-29T08:26:19.521Z,12.84
2023-03-29T08:27:19.519Z,12.83
2023-03-29T08:28:19.512Z,12.75
2023-03-29T08:29:19.523Z,12.76
2023-03-29T08:30:20.082Z,12.80
2023-03-29T08:31:19.499Z,12.75
2023-03-29T08:32:19.393Z,12.69
2023-03-29T08:33:19.541Z,12.68
2023-03-29T08:34:19.407Z,12.66
2023-03-29T08:35:19.406Z,12.68
2023-03-29T08:36:19.449Z,12.75
2023-03-29T08:37:19.342Z,12.83
2023-03-29T08:38:19.320Z,12.84
2023-03-29T08:39:19.707Z,12.87
2023-03-29T08:40:19.340Z,12.86
2023-03-29T08:41:19.350Z,12.81
2023-03-29T08:42:19.301Z,12.86
2023-03-29T08:43:19.333Z,12.86
2023-03-29T08:44:19.297Z,12.84
2023-03-29T08:45:19.270Z,12.86
2023-03-29T08:46:19.363Z,12.87
2023-03-29T08:47:19.298Z,12.87
2023-03-29T08:48:19.251Z,12.84
2023-03-29T08:49:19.199Z,12.84
2023-03-29T08:50:19.271Z,12.81
2023-03-29T08:51:19.223Z,12.78
2023-03-29T08:52:19.221Z,12.72
2023-03-29T08:53:19.156Z,12.72
2023-03-29T08:54:19.183Z,12.66
2023-03-29T08:55:19.162Z,12.68
2023-03-29T08:56:19.137Z,12.65
2023-03-29T08:57:19.166Z,12.68
2023-03-29T08:58:19.121Z,12.69
2023-03-29T08:59:19.089Z,12.73
2023-03-29T09:00:19.137Z,12.72
2023-03-29T09:01:19.114Z,12.83
2023-03-29T09:02:19.213Z,12.90
2023-03-29T09:03:19.141Z,12.98
2023-03-29T09:04:19.052Z,13.01
2023-03-29T09:05:19.045Z,13.01
2023-03-29T09:06:19.033Z,13.05
2023-03-29T09:07:19.062Z,13.03
2023-03-29T09:08:19.015Z,13.02
2023-03-29T09:09:19.076Z,13.01
2023-03-29T09:10:19.058Z,12.95
2023-03-29T09:11:18.981Z,12.98
2023-03-29T09:12:18.964Z,12.98
2023-03-29T09:13:19.105Z,13.09
2023-03-29T09:14:18.927Z,13.23
2023-03-29T09:15:18.928Z,13.39
2023-03-29T09:16:18.934Z,13.52
2023-03-29T09:17:18.982Z,13.60
2023-03-29T09:18:18.987Z,13.60
2023-03-29T09:19:18.883Z,13.61
2023-03-29T09:20:18.948Z,13.57
2023-03-29T09:21:18.876Z,13.55
2023-03-29T09:22:18.914Z,13.49
2023-03-29T09:23:18.855Z,13.47
2023-03-29T09:24:18.820Z,13.55
2023-03-29T09:25:18.807Z,13.57
2023-03-29T09:26:18.867Z,13.55
2023-03-29T09:27:18.801Z,13.61
2023-03-29T09:28:18.812Z,13.62
2023-03-29T09:29:18.747Z,13.75
2023-03-29T09:30:18.856Z,13.79
2023-03-29T09:31:18.855Z,13.94
2023-03-29T09:32:18.790Z,14.05
2023-03-29T09:33:18.712Z,14.12
2023-03-29T09:34:18.713Z,14.13
2023-03-29T09:35:18.890Z,14.15
2023-03-29T09:36:18.696Z,14.16
2023-03-29T09:37:18.665Z,14.19
2023-03-29T09:38:18.668Z,14.25
2023-03-29T09:39:18.647Z,14.28
2023-03-29T09:40:18.617Z,14.33
2023-03-29T09:41:18.632Z,14.33
2023-03-29T09:42:18.642Z,14.36
2023-03-29T09:43:18.625Z,14.37
2023-03-29T09:44:30.324Z,14.40
2023-03-29T09:45:19.638Z,14.34
2023-03-29T09:46:18.602Z,14.30
2023-03-29T09:47:18.582Z,14.23
2023-03-29T09:48:18.563Z,14.13
2023-03-29T09:49:18.561Z,14.00
2023-03-29T09:50:30.213Z,13.91
2023-03-29T09:51:19.497Z,13.86
2023-03-29T09:52:18.516Z,13.76
2023-03-29T09:53:18.518Z,13.70
2023-03-29T09:54:18.533Z,13.64
2023-03-29T09:55:18.468Z,13.61
2023-03-29T09:56:18.495Z,13.54
2023-03-29T09:57:18.466Z,13.50
2023-03-29T09:58:18.465Z,13.47
2023-03-29T09:59:18.442Z,13.49
2023-03-29T10:00:18.431Z,13.55
2023-03-29T10:01:18.486Z,13.67
2023-03-29T10:02:18.386Z,13.70
2023-03-29T10:03:18.393Z,13.73
2023-03-29T10:04:18.436Z,13.67
2023-03-29T10:05:18.383Z,13.70
2023-03-29T10:06:18.363Z,13.73
2023-03-29T10:07:18.340Z,13.79
2023-03-29T10:08:19.724Z,13.76
2023-03-29T10:09:18.303Z,13.67
2023-03-29T10:10:18.446Z,13.55
2023-03-29T10:11:18.322Z,13.39
2023-03-29T10:12:18.391Z,13.28
2023-03-29T10:13:18.336Z,13.16
2023-03-29T10:14:18.318Z,13.12
2023-03-29T10:15:29.268Z,13.16
2023-03-29T10:16:19.337Z,13.19
2023-03-29T10:17:18.257Z,13.19
2023-03-29T10:18:18.287Z,13.12
2023-03-29T10:19:18.234Z,13.11
2023-03-29T10:20:18.220Z,13.06
2023-03-29T10:21:18.212Z,12.99
2023-03-29T10:22:18.211Z,13.02
2023-03-29T10:23:18.210Z,13.02
2023-03-29T10:24:18.149Z,13.06
2023-03-29T10:25:18.136Z,13.19
2023-03-29T10:26:18.127Z,13.30
2023-03-29T10:27:18.104Z,13.33
2023-03-29T10:28:18.134Z,13.28
2023-03-29T10:29:18.078Z,13.21
2023-03-29T10:30:18.070Z,13.17
2023-03-29T10:31:18.130Z,13.13
2023-03-29T10:32:18.040Z,13.06
2023-03-29T10:33:18.075Z,13.05
2023-03-29T10:34:18.014Z,13.02
2023-03-29T10:35:18.009Z,13.08
2023-03-29T10:36:18.121Z,13.06
2023-03-29T10:37:17.987Z,13.09
2023-03-29T10:38:18.046Z,13.12
2023-03-29T10:39:18.003Z,13.26
2023-03-29T10:40:17.953Z,13.36
2023-03-29T10:41:17.959Z,13.37
2023-03-29T10:42:17.936Z,13.37
2023-03-29T10:43:17.939Z,13.39
2023-03-29T10:44:17.921Z,13.36
2023-03-29T10:45:17.899Z,13.31
2023-03-29T10:46:17.943Z,13.30
2023-03-29T10:47:17.882Z,13.36
2023-03-29T10:48:17.900Z,13.39
2023-03-29T10:49:17.852Z,13.40
2023-03-29T10:50:17.846Z,13.37
2023-03-29T10:51:17.887Z,13.31
2023-03-29T10:52:17.829Z,13.27
2023-03-29T10:53:17.833Z,13.26
2023-03-29T10:54:17.838Z,13.21
2023-03-29T10:55:17.897Z,13.16
2023-03-29T10:56:17.816Z,13.08
2023-03-29T10:57:17.827Z,13.06
2023-03-29T10:58:17.785Z,13.05
2023-03-29T10:59:17.741Z,13.03
2023-03-29T11:00:17.760Z,13.08
2023-03-29T11:01:17.811Z,13.20
2023-03-29T11:02:17.731Z,13.33
2023-03-29T11:03:20.251Z,13.47
2023-03-29T11:04:17.762Z,13.50
2023-03-29T11:05:17.744Z,13.55
2023-03-29T11:06:17.706Z,13.58
2023-03-29T11:07:17.685Z,13.64
2023-03-29T11:08:17.729Z,13.70
2023-03-29T11:09:17.620Z,13.85
2023-03-29T11:10:17.619Z,14.00
2023-03-29T11:11:17.618Z,14.16
2023-03-29T11:12:17.615Z,14.36
2023-03-29T11:13:17.702Z,14.56
2023-03-29T11:14:17.589Z,14.78
2023-03-29T11:15:17.584Z,15.02
2023-03-29T11:16:17.627Z,15.22
2023-03-29T11:17:17.763Z,15.43
2023-03-29T11:18:17.605Z,15.48
2023-03-29T11:19:17.548Z,15.52
2023-03-29T11:20:17.602Z,15.60
2023-03-29T11:21:17.540Z,15.57
2023-03-29T11:22:17.606Z,15.51
2023-03-29T11:23:17.499Z,15.47
2023-03-29T11:24:17.519Z,15.48
2023-03-29T11:25:17.513Z,15.54
2023-03-29T11:26:17.484Z,15.72
2023-03-29T11:27:17.470Z,15.96
2023-03-29T11:28:17.477Z,16.16
2023-03-29T11:29:17.451Z,16.43
2023-03-29T11:30:17.409Z,16.43
2023-03-29T11:31:17.412Z,16.40
2023-03-29T11:32:17.429Z,16.34
2023-03-29T11:33:17.409Z,16.22
2023-03-29T11:34:17.435Z,16.24
2023-03-29T11:35:17.342Z,16.24
2023-03-29T11:36:17.398Z,16.25
2023-03-29T11:37:17.352Z,16.51
2023-03-29T11:38:17.321Z,16.69
2023-03-29T11:39:17.311Z,16.94
2023-03-29T11:40:17.321Z,18.03
2023-03-29T11:41:17.275Z,18.41
2023-03-29T11:42:17.268Z,18.21
2023-03-29T11:43:17.265Z,18.00
2023-03-29T11:44:17.268Z,17.82
2023-03-29T11:45:17.222Z,17.71
2023-03-29T11:46:17.305Z,17.54
2023-03-29T11:47:17.224Z,17.52
2023-03-29T11:48:17.271Z,17.44
2023-03-29T11:49:17.226Z,17.34
2023-03-29T11:50:17.225Z,17.24
2023-03-29T11:51:17.211Z,17.30
2023-03-29T11:52:17.163Z,17.24
2023-03-29T11:53:17.162Z,17.16
2023-03-29T11:54:17.142Z,17.05
2023-03-29T11:55:17.142Z,17.04
2023-03-29T11:56:17.161Z,17.02
2023-03-29T11:57:17.164Z,17.09
2023-03-29T11:58:17.088Z,17.09
2023-03-29T11:59:17.132Z,17.01
2023-03-29T12:00:17.087Z,16.97
2023-03-29T12:01:17.097Z,16.94
2023-03-29T12:02:17.106Z,16.94
2023-03-29T12:03:17.116Z,16.92
2023-03-29T12:04:17.092Z,16.98
2023-03-29T12:05:17.033Z,17.05
2023-03-29T12:06:16.999Z,17.09
2023-03-29T12:07:17.014Z,17.07
2023-03-29T12:08:17.132Z,17.07
2023-03-29T12:09:17.038Z,17.10
2023-03-29T12:10:16.990Z,17.22
2023-03-29T12:11:17.051Z,17.34
2023-03-29T12:12:16.932Z,17.41
2023-03-29T12:13:16.934Z,17.47
2023-03-29T12:14:16.933Z,17.46
2023-03-29T12:15:16.926Z,17.57
2023-03-29T12:16:16.892Z,17.56
2023-03-29T12:17:16.876Z,17.57
2023-03-29T12:18:16.898Z,17.54
2023-03-29T12:19:16.911Z,17.54
2023-03-29T12:20:16.904Z,17.54
2023-03-29T12:21:16.831Z,17.53
2023-03-29T12:22:16.851Z,17.47
2023-03-29T12:23:16.819Z,17.42
2023-03-29T12:24:16.862Z,17.37
2023-03-29T12:25:18.763Z,17.32
2023-03-29T12:26:16.769Z,17.20
2023-03-29T12:27:16.766Z,17.12
2023-03-29T12:28:16.765Z,16.99
2023-03-29T12:29:16.754Z,16.91
2023-03-29T12:30:16.754Z,16.82
2023-03-29T12:31:16.787Z,16.73
2023-03-29T12:32:16.798Z,16.68
2023-03-29T12:33:16.786Z,16.66
2023-03-29T12:34:16.694Z,16.66
2023-03-29T12:35:16.684Z,16.64
2023-03-29T12:36:16.748Z,16.61
2023-03-29T12:37:16.716Z,16.54
2023-03-29T12:38:16.651Z,16.51
2023-03-29T12:39:16.704Z,16.49
2023-03-29T12:40:16.647Z,16.41
2023-03-29T12:41:16.650Z,16.36
2023-03-29T12:42:16.599Z,16.32
2023-03-29T12:43:16.602Z,16.25
2023-03-29T12:44:16.616Z,16.18
2023-03-29T12:45:16.651Z,16.16
2023-03-29T12:46:16.628Z,16.13
2023-03-29T12:47:16.579Z,16.12
2023-03-29T12:48:16.704Z,16.08
2023-03-29T12:49:17.623Z,16.06
2023-03-29T12:50:16.533Z,16.06
2023-03-29T12:51:16.546Z,16.12
2023-03-29T12:52:16.541Z,16.18
2023-03-29T12:53:16.532Z,16.28
2023-03-29T12:54:16.476Z,16.34
2023-03-29T12:55:16.559Z,16.39
2023-03-29T12:56:16.563Z,16.41
2023-03-29T12:57:16.487Z,16.43
2023-03-29T12:58:16.449Z,16.41
2023-03-29T12:59:16.537Z,16.37
2023-03-29T13:00:16.464Z,16.36
2023-03-29T13:01:16.516Z,16.36
2023-03-29T13:02:16.517Z,16.43
2023-03-29T13:03:16.437Z,16.50
2023-03-29T13:04:16.370Z,16.61
2023-03-29T13:05:16.458Z,16.69
2023-03-29T13:06:16.413Z,16.76
2023-03-29T13:07:16.412Z,16.80